sensor_id;sensor_type;location;lat;lon;timestamp;pressure;altitude;pressure_sealevel;temperature;humidity
23361;BME280;11852;50.082;18.554;2022-12-07T00:00:35;98107.0;;;2.33;89.13
23361;BME280;11852;50.082;18.554;2022-12-07T00:01:44;98106.0;;;2.28;89.26
23361;BME280;11852;50.082;18.554;2022-12-07T00:02:50;98106.0;;;2.2;89.5
23361;BME280;11852;50.082;18.554;2022-12-07T00:04:03;98106.0;;;2.29;89.33
23361;BME280;11852;50.082;18.554;2022-12-07T00:05:09;98107.49;;;2.25;89.4
23361;BME280;11852;50.082;18.554;2022-12-07T00:06:16;98105.51;;;2.17;89.69
23361;BME280;11852;50.082;18.554;2022-12-07T00:07:26;98104.0;;;2.26;89.38
23361;BME280;11852;50.082;18.554;2022-12-07T00:08:33;98102.0;;;2.4;89.08
23361;BME280;11852;50.082;18.554;2022-12-07T00:09:40;98105.0;;;2.42;89.05
23361;BME280;11852;50.082;18.554;2022-12-07T00:10:47;98102.5;;;2.32;89.27
23361;BME280;11852;50.082;18.554;2022-12-07T00:11:54;98099.5;;;2.51;88.81
23361;BME280;11852;50.082;18.554;2022-12-07T00:13:02;98100.0;;;2.33;89.4
23361;BME280;11852;50.082;18.554;2022-12-07T00:14:13;98097.5;;;2.23;89.65
23361;BME280;11852;50.082;18.554;2022-12-07T00:15:20;98100.0;;;2.4;89.09
23361;BME280;11852;50.082;18.554;2022-12-07T00:16:28;98098.0;;;2.28;89.65
23361;BME280;11852;50.082;18.554;2022-12-07T00:17:35;98098.0;;;2.22;89.74
23361;BME280;11852;50.082;18.554;2022-12-07T00:18:42;98099.0;;;2.31;89.46
23361;BME280;11852;50.082;18.554;2022-12-07T00:19:49;98099.0;;;2.4;89.18
23361;BME280;11852;50.082;18.554;2022-12-07T00:22:15;98096.0;;;2.44;89.23
23361;BME280;11852;50.082;18.554;2022-12-07T00:23:22;98096.5;;;2.4;89.31
23361;BME280;11852;50.082;18.554;2022-12-07T00:24:30;98097.5;;;2.51;89.02
23361;BME280;11852;50.082;18.554;2022-12-07T00:25:37;98092.5;;;2.39;89.51
23361;BME280;11852;50.082;18.554;2022-12-07T00:26:44;98094.5;;;2.58;88.76
23361;BME280;11852;50.082;18.554;2022-12-07T00:27:53;98096.0;;;2.56;88.86
23361;BME280;11852;50.082;18.554;2022-12-07T00:29:04;98092.5;;;2.52;89.04
23361;BME280;11852;50.082;18.554;2022-12-07T00:30:08;98092.5;;;2.54;88.96
23361;BME280;11852;50.082;18.554;2022-12-07T00:31:15;98092.5;;;2.57;88.93
23361;BME280;11852;50.082;18.554;2022-12-07T00:32:22;98091.0;;;2.45;89.24
23361;BME280;11852;50.082;18.554;2022-12-07T00:33:29;98089.0;;;2.51;89.16
23361;BME280;11852;50.082;18.554;2022-12-07T00:34:37;98090.5;;;2.46;89.32
23361;BME280;11852;50.082;18.554;2022-12-07T00:35:44;98090.0;;;2.41;89.43
23361;BME280;11852;50.082;18.554;2022-12-07T00:36:51;98089.0;;;2.37;89.68
23361;BME280;11852;50.082;18.554;2022-12-07T00:37:59;98087.0;;;2.56;89.03
23361;BME280;11852;50.082;18.554;2022-12-07T00:39:06;98087.0;;;2.53;89.22
23361;BME280;11852;50.082;18.554;2022-12-07T00:40:13;98080.5;;;2.44;89.48
23361;BME280;11852;50.082;18.554;2022-12-07T00:41:21;98081.5;;;2.43;89.43
23361;BME280;11852;50.082;18.554;2022-12-07T00:42:27;98080.5;;;2.63;88.92
23361;BME280;11852;50.082;18.554;2022-12-07T00:43:34;98077.5;;;2.53;89.26
23361;BME280;11852;50.082;18.554;2022-12-07T00:44:41;98075.5;;;2.46;89.47
23361;BME280;11852;50.082;18.554;2022-12-07T00:45:49;98077.0;;;2.59;89.15
23361;BME280;11852;50.082;18.554;2022-12-07T00:46:56;98076.5;;;2.65;88.88
23361;BME280;11852;50.082;18.554;2022-12-07T00:48:03;98073.0;;;2.72;88.88
23361;BME280;11852;50.082;18.554;2022-12-07T00:49:10;98075.5;;;2.72;88.94
23361;BME280;11852;50.082;18.554;2022-12-07T00:50:17;98075.5;;;2.62;89.1
23361;BME280;11852;50.082;18.554;2022-12-07T00:51:26;98074.5;;;2.42;89.67
23361;BME280;11852;50.082;18.554;2022-12-07T00:52:32;98076.5;;;2.62;88.99
23361;BME280;11852;50.082;18.554;2022-12-07T00:53:40;98073.0;;;2.56;89.24
23361;BME280;11852;50.082;18.554;2022-12-07T00:54:47;98073.0;;;2.55;89.32
23361;BME280;11852;50.082;18.554;2022-12-07T00:55:54;98073.5;;;2.45;89.6
23361;BME280;11852;50.082;18.554;2022-12-07T00:57:01;98070.49;;;2.43;89.65
23361;BME280;11852;50.082;18.554;2022-12-07T00:58:08;98072.5;;;2.51;89.42
23361;BME280;11852;50.082;18.554;2022-12-07T00:59:16;98072.5;;;2.47;89.59
23361;BME280;11852;50.082;18.554;2022-12-07T01:00:26;98075.5;;;2.49;89.54
23361;BME280;11852;50.082;18.554;2022-12-07T01:01:34;98075.5;;;2.52;89.43
23361;BME280;11852;50.082;18.554;2022-12-07T01:02:40;98076.5;;;2.66;89.08
23361;BME280;11852;50.082;18.554;2022-12-07T01:03:47;98074.0;;;2.51;89.52
23361;BME280;11852;50.082;18.554;2022-12-07T01:04:55;98072.5;;;2.46;89.6
23361;BME280;11852;50.082;18.554;2022-12-07T01:06:02;98074.0;;;2.53;89.33
23361;BME280;11852;50.082;18.554;2022-12-07T01:07:09;98073.0;;;2.4;89.72
23361;BME280;11852;50.082;18.554;2022-12-07T01:08:16;98069.5;;;2.4;89.71
23361;BME280;11852;50.082;18.554;2022-12-07T01:09:23;98068.0;;;2.4;89.78
23361;BME280;11852;50.082;18.554;2022-12-07T01:10:31;98067.0;;;2.49;89.49
23361;BME280;11852;50.082;18.554;2022-12-07T01:11:38;98069.99;;;2.47;89.63
23361;BME280;11852;50.082;18.554;2022-12-07T01:12:45;98068.0;;;2.37;89.9
23361;BME280;11852;50.082;18.554;2022-12-07T01:13:53;98069.99;;;2.45;89.71
23361;BME280;11852;50.082;18.554;2022-12-07T01:14:59;98068.0;;;2.55;89.45
23361;BME280;11852;50.082;18.554;2022-12-07T01:16:07;98071.0;;;2.62;89.2
23361;BME280;11852;50.082;18.554;2022-12-07T01:17:13;98070.0;;;2.6;89.33
23361;BME280;11852;50.082;18.554;2022-12-07T01:18:20;98069.0;;;2.57;89.42
23361;BME280;11852;50.082;18.554;2022-12-07T01:19:27;98067.0;;;2.47;89.71
23361;BME280;11852;50.082;18.554;2022-12-07T01:20:35;98067.0;;;2.51;89.53
23361;BME280;11852;50.082;18.554;2022-12-07T01:21:42;98065.0;;;2.44;89.76
23361;BME280;11852;50.082;18.554;2022-12-07T01:22:50;98067.5;;;2.55;89.4
23361;BME280;11852;50.082;18.554;2022-12-07T01:23:57;98066.5;;;2.6;89.26
23361;BME280;11852;50.082;18.554;2022-12-07T01:25:04;98066.5;;;2.65;89.13
23361;BME280;11852;50.082;18.554;2022-12-07T01:26:13;98067.0;;;2.55;89.46
23361;BME280;11852;50.082;18.554;2022-12-07T01:27:18;98066.5;;;2.62;89.23
23361;BME280;11852;50.082;18.554;2022-12-07T01:28:26;98063.5;;;2.48;89.68
23361;BME280;11852;50.082;18.554;2022-12-07T01:29:33;98059.0;;;2.52;89.53
23361;BME280;11852;50.082;18.554;2022-12-07T01:30:40;98060.0;;;2.62;89.35
23361;BME280;11852;50.082;18.554;2022-12-07T01:31:48;98060.0;;;2.58;89.44
23361;BME280;11852;50.082;18.554;2022-12-07T01:32:54;98060.5;;;2.56;89.47
23361;BME280;11852;50.082;18.554;2022-12-07T01:34:01;98064.0;;;2.57;89.46
23361;BME280;11852;50.082;18.554;2022-12-07T01:35:08;98062.5;;;2.53;89.46
23361;BME280;11852;50.082;18.554;2022-12-07T01:36:17;98061.0;;;2.63;89.13
23361;BME280;11852;50.082;18.554;2022-12-07T01:37:23;98060.0;;;2.62;89.34
23361;BME280;11852;50.082;18.554;2022-12-07T01:38:30;98062.0;;;2.63;89.21
23361;BME280;11852;50.082;18.554;2022-12-07T01:39:37;98061.0;;;2.69;89.01
23361;BME280;11852;50.082;18.554;2022-12-07T01:40:44;98060.0;;;2.67;89.19
23361;BME280;11852;50.082;18.554;2022-12-07T01:41:52;98059.5;;;2.56;89.48
23361;BME280;11852;50.082;18.554;2022-12-07T01:43:00;98059.0;;;2.73;88.85
23361;BME280;11852;50.082;18.554;2022-12-07T01:46:34;98055.0;;;2.73;88.87
23361;BME280;11852;50.082;18.554;2022-12-07T01:47:42;98051.5;;;2.69;89.15
23361;BME280;11852;50.082;18.554;2022-12-07T01:48:48;98052.5;;;2.74;88.99
23361;BME280;11852;50.082;18.554;2022-12-07T01:49:56;98057.49;;;2.88;88.6
23361;BME280;11852;50.082;18.554;2022-12-07T01:51:05;98055.5;;;2.82;88.9
23361;BME280;11852;50.082;18.554;2022-12-07T01:53:24;98054.51;;;2.91;88.56
23361;BME280;11852;50.082;18.554;2022-12-07T01:54:31;98054.51;;;2.84;88.88
23361;BME280;11852;50.082;18.554;2022-12-07T01:55:39;98054.0;;;2.88;88.6
23361;BME280;11852;50.082;18.554;2022-12-07T01:56:47;98051.5;;;3.03;88.29
23361;BME280;11852;50.082;18.554;2022-12-07T01:57:52;98053.5;;;2.97;88.43
23361;BME280;11852;50.082;18.554;2022-12-07T01:59:02;98051.5;;;3.05;88.23
23361;BME280;11852;50.082;18.554;2022-12-07T02:00:09;98051.0;;;2.89;88.49
23361;BME280;11852;50.082;18.554;2022-12-07T02:01:16;98051.5;;;2.98;88.29
23361;BME280;11852;50.082;18.554;2022-12-07T02:03:41;98052.0;;;2.93;88.44
23361;BME280;11852;50.082;18.554;2022-12-07T02:04:48;98051.0;;;2.92;88.46
23361;BME280;11852;50.082;18.554;2022-12-07T02:05:55;98048.5;;;3.02;88.37
23361;BME280;11852;50.082;18.554;2022-12-07T02:07:02;98046.0;;;3.02;88.28
23361;BME280;11852;50.082;18.554;2022-12-07T02:08:10;98047.0;;;3.12;88.01
23361;BME280;11852;50.082;18.554;2022-12-07T02:09:17;98046.0;;;3.01;88.42
23361;BME280;11852;50.082;18.554;2022-12-07T02:10:26;98047.0;;;3.11;88.04
23361;BME280;11852;50.082;18.554;2022-12-07T02:11:33;98048.0;;;3.0;88.36
23361;BME280;11852;50.082;18.554;2022-12-07T02:12:40;98046.0;;;3.07;88.06
23361;BME280;11852;50.082;18.554;2022-12-07T02:13:48;98047.0;;;3.07;88.06
23361;BME280;11852;50.082;18.554;2022-12-07T02:14:55;98049.0;;;3.08;88.1
23361;BME280;11852;50.082;18.554;2022-12-07T02:16:11;98047.5;;;3.12;87.99
23361;BME280;11852;50.082;18.554;2022-12-07T02:17:20;98046.5;;;3.01;88.29
23361;BME280;11852;50.082;18.554;2022-12-07T02:18:35;98047.5;;;3.09;87.97
23361;BME280;11852;50.082;18.554;2022-12-07T02:21:15;98046.5;;;3.1;88.06
23361;BME280;11852;50.082;18.554;2022-12-07T02:28:34;98054.0;;;3.0;88.13
23361;BME280;11852;50.082;18.554;2022-12-07T02:29:27;98057.49;;;3.09;87.9
23361;BME280;11852;50.082;18.554;2022-12-07T02:30:35;98057.49;;;3.14;87.93
23361;BME280;11852;50.082;18.554;2022-12-07T02:31:43;98059.0;;;3.18;87.82
23361;BME280;11852;50.082;18.554;2022-12-07T02:34:06;98057.5;;;3.06;88.26
23361;BME280;11852;50.082;18.554;2022-12-07T02:35:16;98061.5;;;3.22;87.77
23361;BME280;11852;50.082;18.554;2022-12-07T02:36:27;98063.0;;;3.3;87.67
23361;BME280;11852;50.082;18.554;2022-12-07T02:37:40;98063.5;;;3.36;87.6
23361;BME280;11852;50.082;18.554;2022-12-07T02:40:04;98060.0;;;3.37;87.57
23361;BME280;11852;50.082;18.554;2022-12-07T02:42:25;98054.0;;;3.22;88.07
23361;BME280;11852;50.082;18.554;2022-12-07T02:43:34;98057.0;;;3.33;87.5
23361;BME280;11852;50.082;18.554;2022-12-07T02:44:41;98051.5;;;3.39;87.48
23361;BME280;11852;50.082;18.554;2022-12-07T02:45:48;98051.0;;;3.37;87.78
23361;BME280;11852;50.082;18.554;2022-12-07T02:46:59;98049.5;;;3.3;87.76
23361;BME280;11852;50.082;18.554;2022-12-07T02:48:05;98049.5;;;3.37;87.54
23361;BME280;11852;50.082;18.554;2022-12-07T02:49:13;98050.0;;;3.45;87.38
23361;BME280;11852;50.082;18.554;2022-12-07T02:50:20;98051.5;;;3.54;87.33
23361;BME280;11852;50.082;18.554;2022-12-07T02:51:31;98049.5;;;3.49;87.47
23361;BME280;11852;50.082;18.554;2022-12-07T02:52:38;98050.5;;;3.53;87.35
23361;BME280;11852;50.082;18.554;2022-12-07T02:53:45;98050.5;;;3.52;87.33
23361;BME280;11852;50.082;18.554;2022-12-07T02:54:53;98053.5;;;3.52;87.35
23361;BME280;11852;50.082;18.554;2022-12-07T02:56:07;98052.5;;;3.47;87.43
23361;BME280;11852;50.082;18.554;2022-12-07T03:03:30;98059.0;;;3.53;87.26
23361;BME280;11852;50.082;18.554;2022-12-07T03:12:12;98046.5;;;3.32;87.4
23361;BME280;11852;50.082;18.554;2022-12-07T03:14:38;98044.99;;;3.13;87.77
23361;BME280;11852;50.082;18.554;2022-12-07T03:16:57;98045.0;;;3.05;87.58
23361;BME280;11852;50.082;18.554;2022-12-07T03:18:03;98044.99;;;3.09;87.54
23361;BME280;11852;50.082;18.554;2022-12-07T03:19:11;98043.5;;;3.14;87.6
23361;BME280;11852;50.082;18.554;2022-12-07T03:20:21;98042.5;;;3.18;87.49
23361;BME280;11852;50.082;18.554;2022-12-07T03:21:31;98043.0;;;3.16;87.56
23361;BME280;11852;50.082;18.554;2022-12-07T03:22:37;98043.0;;;3.2;87.6
23361;BME280;11852;50.082;18.554;2022-12-07T03:23:44;98042.0;;;3.13;87.6
23361;BME280;11852;50.082;18.554;2022-12-07T03:24:52;98044.0;;;3.07;87.85
23361;BME280;11852;50.082;18.554;2022-12-07T03:25:59;98044.5;;;2.97;87.71
23361;BME280;11852;50.082;18.554;2022-12-07T03:28:19;98048.0;;;3.04;87.71
23361;BME280;11852;50.082;18.554;2022-12-07T03:29:31;98047.0;;;3.13;87.44
23361;BME280;11852;50.082;18.554;2022-12-07T03:31:54;98050.5;;;3.22;87.33
23361;BME280;11852;50.082;18.554;2022-12-07T03:33:05;98051.0;;;3.26;87.29
23361;BME280;11852;50.082;18.554;2022-12-07T03:34:17;98051.5;;;3.23;87.32
23361;BME280;11852;50.082;18.554;2022-12-07T03:36:06;98051.0;;;3.16;87.43
23361;BME280;11852;50.082;18.554;2022-12-07T03:37:47;98049.5;;;3.27;87.1
23361;BME280;11852;50.082;18.554;2022-12-07T03:41:30;98043.0;;;3.26;87.06
23361;BME280;11852;50.082;18.554;2022-12-07T03:42:38;98042.0;;;3.28;87.01
23361;BME280;11852;50.082;18.554;2022-12-07T03:43:46;98042.0;;;3.24;87.13
23361;BME280;11852;50.082;18.554;2022-12-07T03:44:53;98043.5;;;3.21;87.16
23361;BME280;11852;50.082;18.554;2022-12-07T03:46:10;98044.99;;;3.28;86.96
23361;BME280;11852;50.082;18.554;2022-12-07T03:49:43;98044.5;;;3.3;87.02
23361;BME280;11852;50.082;18.554;2022-12-07T03:50:52;98045.5;;;3.31;86.99
23361;BME280;11852;50.082;18.554;2022-12-07T03:53:42;98043.0;;;3.32;86.91
23361;BME280;11852;50.082;18.554;2022-12-07T03:54:30;98042.0;;;3.34;86.93
23361;BME280;11852;50.082;18.554;2022-12-07T03:55:36;98043.0;;;3.36;86.93
23361;BME280;11852;50.082;18.554;2022-12-07T03:56:43;98046.5;;;3.38;86.9
23361;BME280;11852;50.082;18.554;2022-12-07T03:57:51;98045.5;;;3.37;86.88
23361;BME280;11852;50.082;18.554;2022-12-07T03:58:57;98044.99;;;3.38;86.77
23361;BME280;11852;50.082;18.554;2022-12-07T04:00:06;98047.0;;;3.38;86.78
23361;BME280;11852;50.082;18.554;2022-12-07T04:01:12;98047.5;;;3.39;86.74
23361;BME280;11852;50.082;18.554;2022-12-07T04:02:19;98046.5;;;3.38;86.75
23361;BME280;11852;50.082;18.554;2022-12-07T04:03:27;98046.0;;;3.38;86.76
23361;BME280;11852;50.082;18.554;2022-12-07T04:04:34;98048.0;;;3.38;86.73
23361;BME280;11852;50.082;18.554;2022-12-07T04:05:41;98049.0;;;3.38;86.76
23361;BME280;11852;50.082;18.554;2022-12-07T04:06:49;98047.5;;;3.38;86.8
23361;BME280;11852;50.082;18.554;2022-12-07T04:07:56;98049.5;;;3.38;86.82
23361;BME280;11852;50.082;18.554;2022-12-07T04:09:04;98048.5;;;3.38;86.78
23361;BME280;11852;50.082;18.554;2022-12-07T04:10:11;98048.5;;;3.39;86.82
23361;BME280;11852;50.082;18.554;2022-12-07T04:11:18;98046.0;;;3.39;86.79
23361;BME280;11852;50.082;18.554;2022-12-07T04:12:26;98045.5;;;3.39;86.82
23361;BME280;11852;50.082;18.554;2022-12-07T04:13:33;98045.5;;;3.37;86.74
23361;BME280;11852;50.082;18.554;2022-12-07T04:14:40;98044.5;;;3.25;86.87
23361;BME280;11852;50.082;18.554;2022-12-07T04:15:47;98044.99;;;3.27;86.65
23361;BME280;11852;50.082;18.554;2022-12-07T04:16:55;98042.5;;;3.23;86.74
23361;BME280;11852;50.082;18.554;2022-12-07T04:18:02;98048.0;;;3.25;86.67
23361;BME280;11852;50.082;18.554;2022-12-07T04:19:09;98049.0;;;3.25;86.71
23361;BME280;11852;50.082;18.554;2022-12-07T04:20:17;98047.0;;;3.23;86.71
23361;BME280;11852;50.082;18.554;2022-12-07T04:21:24;98044.99;;;3.22;86.71
23361;BME280;11852;50.082;18.554;2022-12-07T04:22:31;98046.0;;;3.24;86.75
23361;BME280;11852;50.082;18.554;2022-12-07T04:23:39;98046.0;;;3.24;86.74
23361;BME280;11852;50.082;18.554;2022-12-07T04:24:46;98045.0;;;3.23;86.73
23361;BME280;11852;50.082;18.554;2022-12-07T04:25:54;98047.5;;;3.21;86.79
23361;BME280;11852;50.082;18.554;2022-12-07T04:27:02;98045.0;;;3.19;86.78
23361;BME280;11852;50.082;18.554;2022-12-07T04:28:08;98044.0;;;3.16;86.79
23361;BME280;11852;50.082;18.554;2022-12-07T04:29:17;98044.0;;;3.18;86.71
23361;BME280;11852;50.082;18.554;2022-12-07T04:30:24;98047.0;;;3.07;86.63
23361;BME280;11852;50.082;18.554;2022-12-07T04:31:31;98047.5;;;3.1;86.6
23361;BME280;11852;50.082;18.554;2022-12-07T04:32:38;98048.5;;;3.1;86.68
23361;BME280;11852;50.082;18.554;2022-12-07T04:33:46;98046.5;;;3.11;86.67
23361;BME280;11852;50.082;18.554;2022-12-07T04:34:53;98049.0;;;3.08;86.73
23361;BME280;11852;50.082;18.554;2022-12-07T04:36:00;98050.0;;;3.1;86.65
23361;BME280;11852;50.082;18.554;2022-12-07T04:37:08;98049.0;;;3.1;86.65
23361;BME280;11852;50.082;18.554;2022-12-07T04:38:15;98048.0;;;3.1;86.63
23361;BME280;11852;50.082;18.554;2022-12-07T04:39:24;98046.5;;;3.05;86.6
23361;BME280;11852;50.082;18.554;2022-12-07T04:40:29;98047.5;;;3.08;86.6
23361;BME280;11852;50.082;18.554;2022-12-07T04:41:36;98046.0;;;3.09;86.6
23361;BME280;11852;50.082;18.554;2022-12-07T04:42:45;98046.0;;;3.08;86.58
23361;BME280;11852;50.082;18.554;2022-12-07T04:43:54;98045.49;;;2.99;86.79
23361;BME280;11852;50.082;18.554;2022-12-07T04:45:00;98047.5;;;3.06;86.58
23361;BME280;11852;50.082;18.554;2022-12-07T04:46:07;98046.5;;;3.06;86.61
23361;BME280;11852;50.082;18.554;2022-12-07T04:47:14;98044.5;;;3.06;86.65
23361;BME280;11852;50.082;18.554;2022-12-07T04:48:22;98047.0;;;3.03;86.68
23361;BME280;11852;50.082;18.554;2022-12-07T04:49:29;98046.0;;;3.03;86.63
23361;BME280;11852;50.082;18.554;2022-12-07T04:50:36;98047.0;;;3.05;86.62
23361;BME280;11852;50.082;18.554;2022-12-07T04:51:44;98045.49;;;3.07;86.74
23361;BME280;11852;50.082;18.554;2022-12-07T04:52:51;98046.5;;;3.05;86.68
23361;BME280;11852;50.082;18.554;2022-12-07T04:53:58;98047.5;;;3.01;86.87
23361;BME280;11852;50.082;18.554;2022-12-07T04:55:07;98048.5;;;3.01;86.67
23361;BME280;11852;50.082;18.554;2022-12-07T04:56:14;98049.0;;;3.03;86.63
23361;BME280;11852;50.082;18.554;2022-12-07T04:57:21;98049.0;;;3.04;86.65
23361;BME280;11852;50.082;18.554;2022-12-07T04:58:28;98049.0;;;3.05;86.62
23361;BME280;11852;50.082;18.554;2022-12-07T04:59:36;98050.0;;;3.05;86.72
23361;BME280;11852;50.082;18.554;2022-12-07T05:00:45;98053.5;;;2.86;86.74
23361;BME280;11852;50.082;18.554;2022-12-07T05:01:52;98054.51;;;2.82;86.84
23361;BME280;11852;50.082;18.554;2022-12-07T05:03:00;98054.51;;;2.86;86.6
23361;BME280;11852;50.082;18.554;2022-12-07T05:04:08;98056.01;;;2.88;86.79
23361;BME280;11852;50.082;18.554;2022-12-07T05:05:16;98053.0;;;2.91;86.66
23361;BME280;11852;50.082;18.554;2022-12-07T05:06:24;98055.01;;;2.87;86.82
23361;BME280;11852;50.082;18.554;2022-12-07T05:07:36;98056.01;;;2.83;86.87
23361;BME280;11852;50.082;18.554;2022-12-07T05:08:43;98055.01;;;2.92;86.72
23361;BME280;11852;50.082;18.554;2022-12-07T05:09:57;98056.0;;;2.93;86.89
23361;BME280;11852;50.082;18.554;2022-12-07T05:11:05;98055.01;;;2.92;86.9
23361;BME280;11852;50.082;18.554;2022-12-07T05:12:11;98056.01;;;2.87;86.8
23361;BME280;11852;50.082;18.554;2022-12-07T05:13:18;98057.49;;;2.91;86.77
23361;BME280;11852;50.082;18.554;2022-12-07T05:14:26;98057.49;;;2.9;86.81
23361;BME280;11852;50.082;18.554;2022-12-07T05:15:33;98057.0;;;2.87;86.93
23361;BME280;11852;50.082;18.554;2022-12-07T05:16:40;98058.5;;;2.91;86.81
23361;BME280;11852;50.082;18.554;2022-12-07T05:17:48;98057.5;;;2.86;86.96
23361;BME280;11852;50.082;18.554;2022-12-07T05:18:56;98057.5;;;2.83;86.81
23361;BME280;11852;50.082;18.554;2022-12-07T05:20:03;98059.5;;;2.89;86.82
23361;BME280;11852;50.082;18.554;2022-12-07T05:21:10;98057.5;;;2.92;86.82
23361;BME280;11852;50.082;18.554;2022-12-07T05:22:18;98054.0;;;2.89;86.92
23361;BME280;11852;50.082;18.554;2022-12-07T05:23:25;98051.0;;;2.67;87.15
23361;BME280;11852;50.082;18.554;2022-12-07T05:24:35;98051.5;;;2.66;86.93
23361;BME280;11852;50.082;18.554;2022-12-07T05:25:42;98049.5;;;2.72;86.84
23361;BME280;11852;50.082;18.554;2022-12-07T05:26:50;98049.5;;;2.52;87.41
23361;BME280;11852;50.082;18.554;2022-12-07T05:27:57;98051.5;;;2.62;86.94
23361;BME280;11852;50.082;18.554;2022-12-07T05:29:04;98056.5;;;2.65;87.15
23361;BME280;11852;50.082;18.554;2022-12-07T05:30:11;98054.0;;;2.68;86.99
23361;BME280;11852;50.082;18.554;2022-12-07T05:31:19;98053.0;;;2.57;87.34
23361;BME280;11852;50.082;18.554;2022-12-07T05:32:26;98052.5;;;2.55;87.24
23361;BME280;11852;50.082;18.554;2022-12-07T05:33:35;98053.5;;;2.63;87.07
23361;BME280;11852;50.082;18.554;2022-12-07T05:34:42;98053.5;;;2.57;87.17
23361;BME280;11852;50.082;18.554;2022-12-07T05:35:49;98054.51;;;2.64;86.96
23361;BME280;11852;50.082;18.554;2022-12-07T05:36:57;98053.0;;;2.72;86.96
23361;BME280;11852;50.082;18.554;2022-12-07T05:38:04;98054.0;;;2.75;87.01
23361;BME280;11852;50.082;18.554;2022-12-07T05:39:12;98051.0;;;2.73;87.05
23361;BME280;11852;50.082;18.554;2022-12-07T05:40:21;98055.51;;;2.66;86.97
23361;BME280;11852;50.082;18.554;2022-12-07T05:41:35;98054.51;;;2.68;86.95
23361;BME280;11852;50.082;18.554;2022-12-07T05:42:42;98054.0;;;2.58;87.19
23361;BME280;11852;50.082;18.554;2022-12-07T05:43:49;98056.01;;;2.51;87.2
23361;BME280;11852;50.082;18.554;2022-12-07T05:44:57;98057.5;;;2.52;87.12
23361;BME280;11852;50.082;18.554;2022-12-07T05:46:04;98056.5;;;2.41;87.43
23361;BME280;11852;50.082;18.554;2022-12-07T05:47:12;98054.5;;;2.45;87.11
23361;BME280;11852;50.082;18.554;2022-12-07T05:48:19;98059.0;;;2.51;87.11
23361;BME280;11852;50.082;18.554;2022-12-07T05:49:27;98060.0;;;2.59;87.12
23361;BME280;11852;50.082;18.554;2022-12-07T05:50:35;98062.0;;;2.61;87.1
23361;BME280;11852;50.082;18.554;2022-12-07T05:51:43;98064.0;;;2.65;87.02
23361;BME280;11852;50.082;18.554;2022-12-07T05:52:50;98062.0;;;2.64;86.96
23361;BME280;11852;50.082;18.554;2022-12-07T05:53:57;98060.0;;;2.4;87.56
23361;BME280;11852;50.082;18.554;2022-12-07T05:55:06;98058.5;;;2.4;87.17
23361;BME280;11852;50.082;18.554;2022-12-07T05:56:14;98061.5;;;2.47;87.16
23361;BME280;11852;50.082;18.554;2022-12-07T05:57:21;98060.5;;;2.5;87.18
23361;BME280;11852;50.082;18.554;2022-12-07T05:58:33;98059.5;;;2.44;87.29
23361;BME280;11852;50.082;18.554;2022-12-07T05:59:40;98061.0;;;2.38;87.49
23361;BME280;11852;50.082;18.554;2022-12-07T06:00:47;98061.5;;;2.39;87.31
23361;BME280;11852;50.082;18.554;2022-12-07T06:03:07;98062.0;;;2.49;87.29
23361;BME280;11852;50.082;18.554;2022-12-07T06:04:14;98061.5;;;2.52;87.17
23361;BME280;11852;50.082;18.554;2022-12-07T06:05:21;98063.5;;;2.54;87.18
23361;BME280;11852;50.082;18.554;2022-12-07T06:06:28;98064.5;;;2.5;87.22
23361;BME280;11852;50.082;18.554;2022-12-07T06:07:35;98069.0;;;2.63;87.15
23361;BME280;11852;50.082;18.554;2022-12-07T06:08:45;98069.0;;;2.41;87.59
23361;BME280;11852;50.082;18.554;2022-12-07T06:09:53;98069.5;;;2.33;87.52
23361;BME280;11852;50.082;18.554;2022-12-07T06:11:06;98068.01;;;2.16;87.96
23361;BME280;11852;50.082;18.554;2022-12-07T06:12:19;98071.0;;;2.16;87.85
23361;BME280;11852;50.082;18.554;2022-12-07T06:13:26;98070.49;;;2.16;87.81
23361;BME280;11852;50.082;18.554;2022-12-07T06:14:34;98073.0;;;2.29;87.53
23361;BME280;11852;50.082;18.554;2022-12-07T06:15:41;98071.0;;;2.34;87.46
23361;BME280;11852;50.082;18.554;2022-12-07T06:16:48;98072.0;;;2.34;87.59
23361;BME280;11852;50.082;18.554;2022-12-07T06:17:56;98069.99;;;2.32;87.57
23361;BME280;11852;50.082;18.554;2022-12-07T06:19:03;98071.0;;;2.39;87.36
23361;BME280;11852;50.082;18.554;2022-12-07T06:20:10;98074.0;;;2.39;87.43
23361;BME280;11852;50.082;18.554;2022-12-07T06:21:17;98075.5;;;2.36;87.6
23361;BME280;11852;50.082;18.554;2022-12-07T06:22:24;98073.5;;;2.41;87.42
23361;BME280;11852;50.082;18.554;2022-12-07T06:23:31;98075.5;;;2.39;87.38
23361;BME280;11852;50.082;18.554;2022-12-07T06:24:38;98079.51;;;2.38;87.27
23361;BME280;11852;50.082;18.554;2022-12-07T06:25:45;98083.5;;;2.23;87.51
23361;BME280;11852;50.082;18.554;2022-12-07T06:26:52;98084.5;;;2.3;87.35
23361;BME280;11852;50.082;18.554;2022-12-07T06:28:00;98084.0;;;2.19;87.79
23361;BME280;11852;50.082;18.554;2022-12-07T06:29:07;98085.5;;;2.08;88.03
23361;BME280;11852;50.082;18.554;2022-12-07T06:30:14;98087.0;;;1.94;88.29
23361;BME280;11852;50.082;18.554;2022-12-07T06:31:21;98089.0;;;2.07;87.8
23361;BME280;11852;50.082;18.554;2022-12-07T06:32:28;98088.0;;;2.06;87.93
23361;BME280;11852;50.082;18.554;2022-12-07T06:33:36;98089.0;;;2.07;87.87
23361;BME280;11852;50.082;18.554;2022-12-07T06:34:43;98093.0;;;2.14;87.68
23361;BME280;11852;50.082;18.554;2022-12-07T06:35:50;98092.5;;;2.09;87.97
23361;BME280;11852;50.082;18.554;2022-12-07T06:36:57;98093.01;;;2.01;87.97
23361;BME280;11852;50.082;18.554;2022-12-07T06:38:04;98091.0;;;1.92;88.31
23361;BME280;11852;50.082;18.554;2022-12-07T06:39:11;98092.01;;;1.95;88.14
23361;BME280;11852;50.082;18.554;2022-12-07T06:40:19;98093.0;;;1.77;88.65
23361;BME280;11852;50.082;18.554;2022-12-07T06:41:25;98090.0;;;1.8;88.48
23361;BME280;11852;50.082;18.554;2022-12-07T06:42:33;98091.5;;;1.82;88.6
23361;BME280;11852;50.082;18.554;2022-12-07T06:43:40;98091.5;;;1.81;88.61
23361;BME280;11852;50.082;18.554;2022-12-07T06:44:47;98093.01;;;1.96;88.1
23361;BME280;11852;50.082;18.554;2022-12-07T06:45:54;98094.0;;;1.96;88.12
23361;BME280;11852;50.082;18.554;2022-12-07T06:47:01;98094.5;;;2.0;88.19
23361;BME280;11852;50.082;18.554;2022-12-07T06:48:08;98098.0;;;2.01;88.18
23361;BME280;11852;50.082;18.554;2022-12-07T06:49:15;98096.5;;;1.99;88.18